Lochloosa, Florida
Current Conditions -  °F | °C
As of 9:53 AM on Friday 19 Dec 2014 (Local Time) from KGNV Reporting Station
Clear Clear  
Wind Chill: 12°   Ceiling: Unl
Heat Index: 12°   Visibility: 10mi
Dew Point:   Wind: 0mph
Humidity: 71%   Direction: NA
Pressure: 30.17"   Gusts: NA
Location:  29.51°N, 82.1°W
Report Text: KGNV 191453Z 00000KT 10SM CLR 12/07 A3017 RMK AO2 SLP215 T01170067 51017
Loading
Personal Weather Stations






























Interactive Weather Map New forecast layout! Learn more

10-Day Weather Forecast

Advertisements
Track Severe Weather on mobile